Time;durP1;ratioP1;P1;durP2;ratioP2;P2;SDS_P1;SDS_P2;PMS_P1;PMS_P2;Temp;Humidity;BMP_temperature;BMP_pressure;BME280_temperature;BME280_humidity;BME280_pressure;Samples;Min_cycle;Max_cycle;Signal;HPM_P1;HPM_P2
2023/07/25 00:01:13;;;;;;;3.00;2.87;;;;;;;-145.94;69.83;75893.00;5114578;28;20211;-71
2023/07/25 00:03:40;;;;;;;5.13;3.20;;;;;;;-145.94;70.20;75901.16;5114548;28;20612;-71
2023/07/25 00:06:06;;;;;;;3.13;2.63;;;;;;;-145.94;70.40;75909.31;5114575;28;20195;-71
2023/07/25 00:08:33;;;;;;;3.37;3.07;;;;;;;-145.94;70.26;75911.38;5115074;28;20238;-71
2023/07/25 00:11:00;;;;;;;3.37;3.20;;;;;;;-145.94;70.37;75913.41;5114968;28;20235;-71
2023/07/25 00:13:27;;;;;;;6.73;3.37;;;;;;;-145.94;70.28;75915.44;5114944;28;20262;-71
2023/07/25 00:15:53;;;;;;;3.33;3.03;;;;;;;-145.94;70.10;75913.41;5114658;28;20257;-71
2023/07/25 00:18:20;;;;;;;3.03;3.00;;;;;;;-145.94;70.16;75921.56;5114339;28;20182;-71
2023/07/25 00:20:47;;;;;;;5.23;2.80;;;;;;;-145.94;70.19;75919.50;5114493;28;20196;-71
2023/07/25 00:23:13;;;;;;;5.03;3.27;;;;;;;-145.94;69.80;75925.63;5114647;28;20292;-71
2023/07/25 00:25:39;;;;;;;2.57;2.57;;;;;;;-145.94;70.16;75925.63;5114779;28;20242;-71
2023/07/25 00:28:06;;;;;;;2.40;2.30;;;;;;;-145.94;70.23;75929.72;5113909;28;20182;-71
2023/07/25 00:30:33;;;;;;;6.93;3.40;;;;;;;-145.94;70.27;75933.78;5095153;28;20197;-71
2023/07/25 00:32:59;;;;;;;2.97;2.87;;;;;;;-145.94;70.46;75929.72;5114327;28;20205;-71
2023/07/25 00:35:25;;;;;;;3.17;2.90;;;;;;;-145.94;69.59;75935.81;5095893;28;20181;-71
2023/07/25 00:37:52;;;;;;;2.47;2.33;;;;;;;-145.94;69.94;75935.81;5114051;28;20278;-71
2023/07/25 00:40:18;;;;;;;3.70;3.40;;;;;;;-145.94;70.42;75941.94;5095813;28;20569;-71
2023/07/25 00:42:45;;;;;;;3.17;2.53;;;;;;;-145.94;70.01;75941.94;5113869;28;20278;-71
2023/07/25 00:45:12;;;;;;;2.60;2.40;;;;;;;-145.94;70.05;75939.91;5096003;28;20185;-71
2023/07/25 00:47:39;;;;;;;2.67;2.67;;;;;;;-145.94;70.11;75941.94;5095902;28;20605;-71
2023/07/25 00:50:06;;;;;;;5.00;2.80;;;;;;;-145.94;70.31;75943.97;5095665;28;20643;-71
2023/07/25 00:52:32;;;;;;;2.83;2.73;;;;;;;-145.94;70.21;75943.97;5095576;28;20213;-71
2023/07/25 00:54:59;;;;;;;3.53;2.60;;;;;;;-145.94;70.22;75946.03;5114400;28;20166;-71
2023/07/25 00:57:25;;;;;;;3.10;3.00;;;;;;;-145.94;70.04;75956.22;5095660;28;20276;-70
2023/07/25 00:59:52;;;;;;;2.87;2.87;;;;;;;-145.94;70.10;75946.03;5113839;28;20169;-70
2023/07/25 01:02:18;;;;;;;6.97;3.00;;;;;;;-145.94;69.81;75946.03;5113605;28;20220;-70
2023/07/25 01:04:45;;;;;;;5.53;2.77;;;;;;;-145.94;69.79;75948.06;5114282;28;20685;-70
2023/07/25 01:07:13;;;;;;;4.53;2.83;;;;;;;-145.94;69.85;75956.22;5114275;28;20174;-70
2023/07/25 01:09:42;;;;;;;2.90;2.63;;;;;;;-145.94;69.83;75956.22;5095499;28;20220;-70
2023/07/25 01:12:09;;;;;;;4.33;3.43;;;;;;;-145.94;70.04;75964.38;5114084;28;20201;-70
2023/07/25 01:14:37;;;;;;;5.07;2.90;;;;;;;-145.94;70.24;75954.19;5114194;28;20193;-70
2023/07/25 01:17:17;;;;;;;4.87;3.00;;;;;;;-145.94;69.64;75956.22;5113634;28;20242;-70
2023/07/25 01:19:46;;;;;;;4.00;2.90;;;;;;;-145.94;69.86;75948.06;5113590;28;20181;-70
2023/07/25 01:22:13;;;;;;;4.73;2.80;;;;;;;-145.94;69.87;75937.88;5095198;28;20224;-70
2023/07/25 01:24:45;;;;;;;2.90;2.70;;;;;;;-145.94;69.87;75943.97;5113843;28;20196;-70
2023/07/25 01:27:16;;;;;;;5.80;3.13;;;;;;;-145.94;69.96;75950.09;5095277;28;20704;-70
2023/07/25 01:29:43;;;;;;;4.50;2.87;;;;;;;-145.94;70.01;75950.09;5114056;28;20219;-70
2023/07/25 01:32:10;;;;;;;3.03;2.80;;;;;;;-145.94;70.42;75954.19;5113855;28;20211;-70
2023/07/25 01:34:37;;;;;;;4.87;3.30;;;;;;;-145.94;70.39;75954.19;5095245;28;20723;-70
2023/07/25 01:37:05;;;;;;;3.60;3.30;;;;;;;-145.94;70.30;75954.19;5113402;28;20250;-70
2023/07/25 01:39:32;;;;;;;3.10;2.90;;;;;;;-145.94;69.96;75941.94;5113999;28;20238;-70
2023/07/25 01:41:58;;;;;;;2.93;2.83;;;;;;;-145.94;70.23;75950.09;5117088;28;20205;-70
2023/07/25 01:44:24;;;;;;;3.53;3.43;;;;;;;-145.94;70.38;75956.22;5117640;28;20188;-70
2023/07/25 01:46:51;;;;;;;5.10;3.73;;;;;;;-145.94;70.23;75962.34;5117300;28;20604;-70
2023/07/25 01:49:17;;;;;;;3.17;2.90;;;;;;;-145.94;70.46;75958.25;5117544;28;20591;-70
2023/07/25 01:51:44;;;;;;;3.17;3.07;;;;;;;-145.94;70.66;75958.25;5099317;28;20251;-70
2023/07/25 01:54:10;;;;;;;2.70;2.70;;;;;;;-145.94;70.46;75954.19;5117087;28;20204;-70
2023/07/25 01:56:37;;;;;;;3.33;3.23;;;;;;;-145.94;70.44;75956.22;5098863;28;20193;-70
2023/07/25 01:59:03;;;;;;;5.37;3.73;;;;;;;-145.94;70.61;75954.19;5098779;28;20196;-70
2023/07/25 02:01:30;;;;;;;3.00;2.77;;;;;;;-145.94;70.86;75954.19;5098724;28;20213;-70
2023/07/25 02:03:57;;;;;;;2.80;2.60;;;;;;;-145.94;70.82;75952.13;5116868;28;20209;-71
2023/07/25 02:06:23;;;;;;;2.57;2.47;;;;;;;-145.94;70.72;75958.25;5117705;28;20187;-71
2023/07/25 02:08:50;;;;;;;2.47;2.47;;;;;;;-145.94;70.75;75960.28;5117127;28;20186;-71
2023/07/25 02:11:16;;;;;;;2.70;2.60;;;;;;;-145.94;71.18;75956.22;5117106;28;20546;-71
2023/07/25 02:13:43;;;;;;;2.67;2.67;;;;;;;-145.94;71.10;75956.22;5098562;28;20296;-71
2023/07/25 02:16:09;;;;;;;3.03;2.80;;;;;;;-145.94;70.95;75962.34;5099089;28;20288;-71
2023/07/25 02:18:36;;;;;;;2.67;2.53;;;;;;;-145.94;71.44;75958.25;5098430;28;20220;-71
2023/07/25 02:21:02;;;;;;;2.47;2.37;;;;;;;-145.94;71.21;75958.25;5098448;28;20750;-71
2023/07/25 02:23:29;;;;;;;2.40;2.40;;;;;;;-145.94;71.03;75958.25;5098126;28;20702;-72
2023/07/25 02:25:55;;;;;;;3.33;3.23;;;;;;;-145.94;71.09;75960.28;5098283;28;20203;-70
2023/07/25 02:28:22;;;;;;;3.33;3.20;;;;;;;-145.94;70.76;75966.41;5116593;28;20242;-71
2023/07/25 02:30:48;;;;;;;3.10;2.90;;;;;;;-145.94;70.44;75978.63;5098035;28;20203;-71
2023/07/25 02:33:15;;;;;;;3.53;3.23;;;;;;;-145.94;70.70;75982.72;5098158;28;20212;-70
2023/07/25 02:35:42;;;;;;;3.80;3.60;;;;;;;-145.94;70.87;75990.88;5098292;28;20188;-71
2023/07/25 02:38:08;;;;;;;6.43;3.23;;;;;;;-145.94;70.81;75997.00;5098205;28;20200;-70
2023/07/25 02:40:35;;;;;;;3.40;3.13;;;;;;;-145.94;70.50;75999.03;5116354;28;20197;-70
2023/07/25 02:43:03;;;;;;;3.07;2.83;;;;;;;-145.94;70.86;76005.16;5097805;28;20680;-70
2023/07/25 02:45:29;;;;;;;5.63;3.70;;;;;;;-145.94;70.66;76007.19;5116942;28;20205;-70
2023/07/25 02:47:56;;;;;;;4.80;4.43;;;;;;;-145.94;70.71;76015.34;5097871;28;20579;-70
2023/07/25 02:50:23;;;;;;;4.90;3.57;;;;;;;-145.94;70.76;76017.38;5116418;28;20192;-70
2023/07/25 02:52:49;;;;;;;3.60;3.40;;;;;;;-145.94;70.83;76021.44;5114909;28;20250;-71
2023/07/25 02:55:16;;;;;;;4.70;4.47;;;;;;;-145.94;70.90;76023.50;5097901;28;20192;-70
2023/07/25 02:57:42;;;;;;;3.50;3.30;;;;;;;-145.94;71.41;76035.72;5116593;28;20185;-71
2023/07/25 03:00:09;;;;;;;12.00;4.00;;;;;;;-145.94;71.29;76035.72;5116150;28;20188;-71
2023/07/25 03:02:36;;;;;;;3.97;3.80;;;;;;;-145.94;71.11;76037.75;5097378;28;20221;-70
2023/07/25 03:05:02;;;;;;;3.27;3.17;;;;;;;-145.94;71.41;76035.72;5116412;28;20189;-70
2023/07/25 03:07:29;;;;;;;3.13;3.13;;;;;;;-145.94;71.54;76035.72;5115781;28;20193;-71
2023/07/25 03:09:55;;;;;;;3.67;3.40;;;;;;;-145.94;71.48;76037.75;5115702;28;20189;-70
2023/07/25 03:12:22;;;;;;;3.27;3.03;;;;;;;-145.94;71.50;76041.84;5115581;28;20193;-70
2023/07/25 03:14:48;;;;;;;6.03;3.90;;;;;;;-145.94;71.83;76047.97;5097304;28;20197;-70
2023/07/25 03:17:15;;;;;;;3.83;3.57;;;;;;;-145.94;71.59;76047.97;5115542;28;20234;-70
2023/07/25 03:19:41;;;;;;;3.40;3.20;;;;;;;-145.94;71.85;76052.03;5116006;28;20273;-70
2023/07/25 03:22:08;;;;;;;3.50;3.20;;;;;;;-145.94;71.59;76050.00;5115336;28;20208;-70
2023/07/25 03:24:35;;;;;;;4.10;3.60;;;;;;;-145.94;71.49;76047.97;5115497;28;20185;-70
2023/07/25 03:27:01;;;;;;;4.63;3.47;;;;;;;-145.94;71.46;76050.00;5115474;28;20195;-70
2023/07/25 03:29:28;;;;;;;3.27;2.93;;;;;;;-145.94;71.74;76058.16;5115247;28;20192;-70
2023/07/25 03:31:54;;;;;;;3.20;3.10;;;;;;;-145.94;71.65;76058.16;5097790;28;20211;-70
2023/07/25 03:34:20;;;;;;;4.63;3.20;;;;;;;-145.94;71.81;76062.22;5115532;28;20177;-70
2023/07/25 03:36:48;;;;;;;3.13;2.93;;;;;;;-145.94;71.66;76058.16;5115705;28;20192;-70
2023/07/25 03:39:15;;;;;;;3.63;3.33;;;;;;;-145.94;71.62;76058.16;5115124;28;20177;-70
2023/07/25 03:41:41;;;;;;;3.03;3.03;;;;;;;-145.94;71.87;76066.31;5096681;28;20193;-70
2023/07/25 03:44:10;;;;;;;3.40;3.40;;;;;;;-145.94;71.59;76078.53;5096599;28;20212;-70
2023/07/25 03:46:37;;;;;;;3.70;3.50;;;;;;;-145.94;71.59;76080.56;5096730;28;20189;-70
2023/07/25 03:49:03;;;;;;;5.23;3.17;;;;;;;-145.94;71.74;76086.69;5115558;28;20189;-70
2023/07/25 03:51:30;;;;;;;3.00;2.90;;;;;;;-145.94;71.79;76082.63;5117210;28;20234;-70
2023/07/25 03:53:56;;;;;;;3.57;3.57;;;;;;;-145.94;71.63;76086.69;5114877;28;20627;-70
2023/07/25 03:56:23;;;;;;;3.30;3.20;;;;;;;-145.94;71.65;76088.72;5096657;28;20196;-70
2023/07/25 03:58:49;;;;;;;3.63;3.40;;;;;;;-145.94;71.62;76092.81;5115488;28;20261;-70
2023/07/25 04:01:16;;;;;;;4.10;3.90;;;;;;;-145.94;71.57;76100.97;5096925;28;20671;-70
2023/07/25 04:03:42;;;;;;;3.80;3.50;;;;;;;-145.94;71.67;76100.97;5114499;28;20216;-70
2023/07/25 04:06:09;;;;;;;4.10;4.00;;;;;;;-145.94;71.81;76100.97;5115269;28;20264;-70
2023/07/25 04:08:35;;;;;;;4.27;4.00;;;;;;;-145.94;71.70;76100.97;5114888;28;20185;-70
2023/07/25 04:11:02;;;;;;;3.10;3.00;;;;;;;-145.94;71.66;76098.94;5114703;28;20196;-70
2023/07/25 04:13:28;;;;;;;3.73;3.63;;;;;;;-145.94;71.72;76098.94;5096170;28;20212;-70
2023/07/25 04:15:54;;;;;;;3.20;3.00;;;;;;;-145.94;71.92;76100.97;5114677;28;20185;-70
2023/07/25 04:18:21;;;;;;;3.67;3.57;;;;;;;-145.94;71.66;76107.09;5114354;28;20196;-70
2023/07/25 04:20:47;;;;;;;3.77;3.67;;;;;;;-145.94;71.92;76119.31;5096617;28;20197;-70
2023/07/25 04:23:15;;;;;;;3.83;3.73;;;;;;;-145.94;71.72;76119.31;5114347;28;20636;-70
2023/07/25 04:25:42;;;;;;;3.97;3.80;;;;;;;-145.94;72.00;76119.31;5114524;28;20234;-70
2023/07/25 04:28:08;;;;;;;3.63;3.53;;;;;;;-145.94;72.16;76119.31;5114453;28;20238;-70
2023/07/25 04:30:35;;;;;;;3.60;3.50;;;;;;;-145.94;72.16;76121.34;5114239;28;20196;-70
2023/07/25 04:33:01;;;;;;;3.97;3.77;;;;;;;-145.94;72.27;76121.34;5114336;28;20223;-71
2023/07/25 04:35:28;;;;;;;3.43;3.40;;;;;;;-145.94;72.27;76117.28;5114197;28;20185;-71
2023/07/25 04:37:54;;;;;;;3.93;3.60;;;;;;;-145.94;72.48;76119.31;5095887;28;20196;-71
2023/07/25 04:40:20;;;;;;;3.67;3.37;;;;;;;-145.94;72.66;76127.47;5114076;28;20184;-71
2023/07/25 04:42:47;;;;;;;5.60;3.73;;;;;;;-145.94;72.63;76125.44;5113819;28;20208;-71
2023/07/25 04:45:13;;;;;;;4.77;4.33;;;;;;;-145.94;72.67;76127.47;5114032;28;20186;-71
2023/07/25 04:47:40;;;;;;;11.40;4.10;;;;;;;-145.94;72.81;76119.31;5095605;28;20667;-71
2023/07/25 04:50:07;;;;;;;4.40;3.93;;;;;;;-145.94;73.09;76125.44;5114418;28;20189;-71
2023/07/25 04:52:34;;;;;;;4.23;3.93;;;;;;;-145.94;73.24;76117.28;5095624;28;20581;-70
2023/07/25 04:55:00;;;;;;;4.07;3.97;;;;;;;-145.94;73.37;76119.31;5114151;28;20643;-70
2023/07/25 04:57:27;;;;;;;3.83;3.83;;;;;;;-145.94;73.51;76123.41;5095573;28;20241;-71
2023/07/25 04:59:54;;;;;;;8.87;4.07;;;;;;;-145.94;73.02;76115.25;5114085;28;20712;-71
2023/07/25 05:02:21;;;;;;;4.60;4.40;;;;;;;-145.94;73.62;76109.13;5113593;28;20670;-71
2023/07/25 05:04:47;;;;;;;5.30;5.10;;;;;;;-145.94;73.37;76103.00;5113980;28;20562;-71
2023/07/25 05:07:14;;;;;;;5.13;4.83;;;;;;;-145.94;73.18;76105.03;5113917;28;20238;-71
2023/07/25 05:09:41;;;;;;;4.83;4.40;;;;;;;-145.94;73.12;76100.97;5113664;28;20181;-71
2023/07/25 05:12:11;;;;;;;5.03;4.80;;;;;;;-145.94;73.38;76107.09;5113540;28;20209;-70
2023/07/25 05:14:38;;;;;;;5.10;4.83;;;;;;;-145.94;73.48;76109.13;5113932;28;20174;-70
2023/07/25 05:17:05;;;;;;;5.53;5.07;;;;;;;-145.94;73.21;76107.09;5117579;28;20185;-70
2023/07/25 05:19:32;;;;;;;5.60;5.10;;;;;;;-145.94;73.10;76100.97;5118121;28;20181;-71
2023/07/25 05:21:59;;;;;;;6.13;5.57;;;;;;;-145.94;73.15;76100.97;5118159;28;20189;-71
2023/07/25 05:24:25;;;;;;;5.00;4.63;;;;;;;-145.94;72.90;76096.88;5118007;28;20185;-71
2023/07/25 05:26:52;;;;;;;5.73;5.30;;;;;;;-145.94;72.95;76096.88;5117700;28;20177;-71
2023/07/25 05:29:18;;;;;;;7.60;5.57;;;;;;;-145.94;72.58;76088.72;5117991;28;20575;-71
2023/07/25 05:31:45;;;;;;;12.07;6.90;;;;;;;-145.94;72.42;76088.72;5117597;28;20181;-71
2023/07/25 05:34:11;;;;;;;12.53;5.20;;;;;;;-145.94;72.40;76090.78;5117687;28;20624;-71
2023/07/25 05:36:38;;;;;;;4.87;4.47;;;;;;;-145.94;72.44;76084.66;5117515;28;20189;-71
2023/07/25 05:39:04;;;;;;;8.80;4.60;;;;;;;-145.94;72.46;76078.53;5117904;28;20594;-71
2023/07/25 05:41:30;;;;;;;5.03;4.63;;;;;;;-145.94;72.04;76072.44;5117382;28;20189;-71
2023/07/25 05:43:57;;;;;;;4.90;4.57;;;;;;;-145.94;71.68;76062.22;5117517;28;20702;-71
2023/07/25 05:46:24;;;;;;;4.63;4.53;;;;;;;-145.94;71.57;76052.03;5117862;28;20234;-71
2023/07/25 05:48:50;;;;;;;9.33;4.77;;;;;;;-145.94;71.33;76047.97;5117545;28;20181;-71
2023/07/25 05:51:16;;;;;;;6.37;4.53;;;;;;;-145.94;71.00;76043.88;5117198;28;20193;-71
2023/07/25 05:53:43;;;;;;;5.73;5.37;;;;;;;-145.94;70.68;76041.84;5098978;28;20197;-70
2023/07/25 05:56:09;;;;;;;12.03;5.07;;;;;;;-145.94;70.39;76029.59;5117437;28;20593;-71
2023/07/25 05:58:36;;;;;;;4.20;3.93;;;;;;;-145.94;70.27;76023.50;5117325;28;20186;-71
2023/07/25 06:01:02;;;;;;;4.03;3.90;;;;;;;-145.94;70.27;76011.25;5098957;28;20234;-71
2023/07/25 06:03:29;;;;;;;4.27;4.07;;;;;;;-145.94;70.22;75994.94;5117380;28;20284;-71
2023/07/25 06:05:55;;;;;;;5.90;4.50;;;;;;;-145.94;69.50;75992.91;5116954;28;20189;-71
2023/07/25 06:08:22;;;;;;;10.10;5.00;;;;;;;-145.94;69.25;75978.63;5116892;28;20190;-71
2023/07/25 06:10:48;;;;;;;4.83;4.47;;;;;;;-145.94;69.16;75970.47;5116845;28;20185;-71
2023/07/25 06:13:14;;;;;;;12.53;3.77;;;;;;;-145.94;68.98;75964.38;5116734;28;20205;-71
2023/07/25 06:15:41;;;;;;;4.03;3.70;;;;;;;-145.94;68.63;75948.06;5116781;28;20182;-71
2023/07/25 06:18:07;;;;;;;4.83;3.40;;;;;;;-145.94;68.47;75935.81;5116963;28;20192;-71
2023/07/25 06:20:34;;;;;;;5.93;3.20;;;;;;;-145.94;67.46;75937.88;5116938;28;20210;-71
2023/07/25 06:23:01;;;;;;;5.10;3.97;;;;;;;-145.94;67.21;75931.75;5116494;28;20216;-71
2023/07/25 06:25:28;;;;;;;2.87;2.70;;;;;;;-145.94;67.08;75925.63;5116555;28;20190;-71
2023/07/25 06:27:54;;;;;;;3.07;2.60;;;;;;;-145.94;66.76;75929.72;5116694;28;20651;-71
2023/07/25 06:30:21;;;;;;;4.43;3.07;;;;;;;-145.94;66.86;75931.75;5116536;28;20246;-72
2023/07/25 06:32:47;;;;;;;3.63;3.53;;;;;;;-145.94;66.36;75935.81;5116934;28;20609;-71
2023/07/25 06:35:14;;;;;;;2.30;2.20;;;;;;;-145.94;66.38;75931.75;5116374;28;20284;-72
2023/07/25 06:37:41;;;;;;;5.87;2.73;;;;;;;-145.94;65.91;75933.78;5116360;28;20238;-71
2023/07/25 06:40:08;;;;;;;9.37;3.37;;;;;;;-145.94;65.78;75931.75;5116298;28;20592;-72
2023/07/25 06:42:34;;;;;;;3.33;3.03;;;;;;;-145.94;65.30;75929.72;5116760;28;20201;-72
2023/07/25 06:45:03;;;;;;;2.03;2.03;;;;;;;-145.94;65.17;75927.66;5097952;28;20242;-71
2023/07/25 06:47:29;;;;;;;2.00;2.00;;;;;;;-145.94;65.02;75925.63;5097906;28;20667;-71
2023/07/25 06:49:56;;;;;;;2.87;2.67;;;;;;;-145.94;65.13;75917.47;5116108;28;20181;-71
2023/07/25 06:52:22;;;;;;;4.63;2.60;;;;;;;-145.94;65.22;75911.38;5116001;28;20281;-71
2023/07/25 06:54:49;;;;;;;3.83;2.60;;;;;;;-145.94;64.65;75907.28;5116291;28;20181;-71
2023/07/25 06:57:15;;;;;;;4.93;2.57;;;;;;;-145.94;64.49;75893.00;5116226;28;20540;-72
2023/07/25 06:59:42;;;;;;;2.83;2.63;;;;;;;-145.94;64.35;75882.81;5116193;28;20185;-72
2023/07/25 07:02:08;;;;;;;3.13;2.57;;;;;;;-145.94;64.19;75864.47;5115827;28;20621;-71
2023/07/25 07:04:34;;;;;;;3.30;3.27;;;;;;;-145.94;64.06;75846.13;5116029;28;20205;-72
2023/07/25 07:07:01;;;;;;;6.10;3.57;;;;;;;-145.94;64.03;75831.84;5116042;28;20185;-72
2023/07/25 07:09:27;;;;;;;9.77;3.23;;;;;;;-145.94;63.06;75833.88;5116035;28;20196;-71
2023/07/25 07:11:54;;;;;;;3.97;3.67;;;;;;;-145.94;63.29;75829.81;5115532;28;20223;-71
2023/07/25 07:14:20;;;;;;;4.43;3.27;;;;;;;-145.94;63.29;75811.47;5115930;28;20186;-71
2023/07/25 07:16:47;;;;;;;6.43;3.93;;;;;;;-145.94;62.63;75793.13;5115844;28;20678;-71
2023/07/25 07:19:13;;;;;;;6.70;4.27;;;;;;;-145.94;61.08;75780.88;5115551;28;20189;-71
2023/07/25 07:21:40;;;;;;;4.97;4.43;;;;;;;-145.94;60.85;75768.66;5115510;28;20234;-72
2023/07/25 07:24:07;;;;;;;5.47;4.93;;;;;;;-145.94;60.94;75778.84;5115818;28;20223;-71
2023/07/25 07:26:33;;;;;;;4.27;4.10;;;;;;;-145.94;60.27;75756.41;5115370;28;20185;-72
2023/07/25 07:29:01;;;;;;;4.93;4.63;;;;;;;-145.94;59.76;75758.47;5115243;28;20181;-72
2023/07/25 07:31:28;;;;;;;3.87;3.57;;;;;;;-145.94;59.81;75748.28;5115493;28;20234;-71
2023/07/25 07:34:09;;;;;;;6.43;4.93;;;;;;;-145.94;59.78;75748.28;5115722;28;20201;-72
2023/07/25 07:36:35;;;;;;;3.80;3.70;;;;;;;-145.94;59.95;75756.41;5115213;28;20189;-72
2023/07/25 07:39:02;;;;;;;4.20;3.80;;;;;;;-145.94;59.42;75756.41;5114554;28;20189;-72
2023/07/25 07:41:28;;;;;;;5.57;3.70;;;;;;;-145.94;59.40;75762.53;5115268;28;20239;-72
2023/07/25 07:43:55;;;;;;;2.97;2.90;;;;;;;-145.94;59.14;75774.78;5114960;28;20686;-72
2023/07/25 07:46:22;;;;;;;5.63;2.80;;;;;;;-145.94;59.20;75772.72;5115002;28;20709;-72
2023/07/25 07:48:48;;;;;;;3.33;2.63;;;;;;;-145.94;59.13;75778.84;5114949;28;20196;-71
2023/07/25 07:51:15;;;;;;;7.63;3.07;;;;;;;-145.94;59.22;75784.97;5114930;28;20197;-71
2023/07/25 07:53:41;;;;;;;8.97;2.90;;;;;;;-145.94;59.89;75780.88;5114701;28;20204;-72
2023/07/25 07:56:07;;;;;;;3.90;2.50;;;;;;;-145.94;59.69;75799.22;5114802;28;20257;-71
2023/07/25 07:58:34;;;;;;;5.60;2.90;;;;;;;-145.94;59.30;75787.00;5115054;28;20193;-71
2023/07/25 08:01:01;;;;;;;4.60;4.03;;;;;;;-145.94;60.08;75791.09;5114722;28;20188;-71
2023/07/25 08:03:27;;;;;;;3.63;3.53;;;;;;;-145.94;60.14;75791.09;5114595;28;20580;-72
2023/07/25 08:05:57;;;;;;;3.57;3.23;;;;;;;-145.94;59.46;75793.13;5114869;28;20185;-72
2023/07/25 08:08:23;;;;;;;8.00;2.90;;;;;;;-145.94;59.06;75815.53;5114558;28;20192;-71
2023/07/25 08:10:50;;;;;;;3.43;3.13;;;;;;;-145.94;59.85;75817.59;5114562;28;20182;-71
2023/07/25 08:13:16;;;;;;;2.87;2.87;;;;;;;-145.94;60.21;75819.63;5114654;28;20205;-72
2023/07/25 08:15:43;;;;;;;4.33;3.97;;;;;;;-145.94;60.57;75815.53;5114488;28;20196;-72
2023/07/25 08:18:09;;;;;;;3.43;3.13;;;;;;;-145.94;60.84;75811.47;5114652;28;20663;-72
2023/07/25 08:20:35;;;;;;;3.10;3.00;;;;;;;-145.94;60.85;75803.31;5114395;28;20185;-72
2023/07/25 08:23:02;;;;;;;3.87;3.57;;;;;;;-145.94;60.49;75795.16;5114178;28;20220;-71
2023/07/25 08:25:29;;;;;;;5.03;4.07;;;;;;;-145.94;59.51;75807.38;5114235;28;20185;-72
2023/07/25 08:27:55;;;;;;;7.37;2.70;;;;;;;-145.94;60.13;75809.44;5114460;28;20195;-71
2023/07/25 08:30:23;;;;;;;9.20;3.60;;;;;;;-145.94;60.16;75809.44;5114164;28;20197;-71
2023/07/25 08:32:50;;;;;;;3.13;2.83;;;;;;;-145.94;59.69;75795.16;5114099;28;20205;-71
2023/07/25 08:35:16;;;;;;;3.83;3.23;;;;;;;-145.94;59.91;75795.16;5114726;28;20666;-71
2023/07/25 08:37:43;;;;;;;5.03;3.00;;;;;;;-145.94;59.77;75799.22;5114100;28;20188;-71
2023/07/25 08:40:10;;;;;;;8.13;2.33;;;;;;;-145.94;59.81;75795.16;5114573;28;20193;-71
2023/07/25 08:42:40;;;;;;;6.43;3.37;;;;;;;-145.94;59.09;75797.19;5114338;28;20205;-71
2023/07/25 08:45:08;;;;;;;4.17;2.50;;;;;;;-145.94;59.43;75789.03;5114726;28;20205;-71
2023/07/25 08:47:39;;;;;;;5.77;3.37;;;;;;;-145.94;59.57;75809.44;5114514;28;20581;-71
2023/07/25 08:50:14;;;;;;;6.17;3.13;;;;;;;-145.94;60.77;75813.50;5095052;28;20577;-71
2023/07/25 08:52:48;;;;;;;3.97;2.83;;;;;;;-145.94;57.78;75813.50;5114232;28;20212;-71
2023/07/25 08:55:14;;;;;;;7.37;2.80;;;;;;;-145.94;58.75;75813.50;5114186;28;20174;-72
2023/07/25 08:57:42;;;;;;;3.77;2.77;;;;;;;-145.94;59.00;75815.53;5114111;28;20189;-72
2023/07/25 09:00:09;;;;;;;5.73;3.00;;;;;;;-145.94;59.45;75821.66;5113785;28;20192;-72
2023/07/25 09:02:35;;;;;;;5.20;3.00;;;;;;;-145.94;59.86;75829.81;5113736;28;20269;-71
2023/07/25 09:05:03;;;;;;;3.73;3.47;;;;;;;-145.94;60.45;75825.75;5113689;28;20205;-71
2023/07/25 09:07:29;;;;;;;3.27;3.07;;;;;;;-145.94;60.01;75827.78;5114006;28;20643;-71
2023/07/25 09:09:56;;;;;;;3.97;2.67;;;;;;;-145.94;59.68;75821.66;5113668;28;20226;-71
2023/07/25 09:12:22;;;;;;;3.20;2.93;;;;;;;-145.94;59.13;75819.63;5113547;28;20201;-72
2023/07/25 09:14:51;;;;;;;6.00;2.80;;;;;;;-145.94;59.67;75823.69;5113870;28;20185;-72
2023/07/25 09:17:17;;;;;;;3.70;3.13;;;;;;;-145.94;59.66;75823.69;5113728;28;20189;-71
2023/07/25 09:19:44;;;;;;;7.33;3.70;;;;;;;-145.94;58.67;75825.75;5113881;28;20593;-71
2023/07/25 09:22:30;;;;;;;2.60;2.50;;;;;;;-145.94;59.51;75825.75;5113483;28;20213;-71
2023/07/25 09:24:58;;;;;;;2.53;2.43;;;;;;;-145.94;59.73;75829.81;5114121;28;20199;-72
2023/07/25 09:27:26;;;;;;;2.57;2.57;;;;;;;-145.94;60.43;75831.84;5113906;28;20185;-72
2023/07/25 09:29:53;;;;;;;2.73;2.53;;;;;;;-145.94;60.61;75829.81;5113732;28;20558;-71
2023/07/25 09:32:25;;;;;;;2.90;2.57;;;;;;;-145.94;60.83;75831.84;5113806;28;20205;-72
2023/07/25 09:35:00;;;;;;;4.83;3.30;;;;;;;-145.94;61.01;75819.63;5113988;28;20189;-72
2023/07/25 09:37:29;;;;;;;4.50;2.87;;;;;;;-145.94;61.49;75811.47;5113706;28;20237;-72
2023/07/25 09:39:56;;;;;;;3.73;3.57;;;;;;;-145.94;61.53;75803.31;5113383;28;20193;-71
2023/07/25 09:42:23;;;;;;;3.93;3.83;;;;;;;-145.94;61.20;75784.97;5113276;28;20213;-71
2023/07/25 09:44:52;;;;;;;3.53;3.23;;;;;;;-145.94;60.86;75780.88;5114110;28;20209;-71
2023/07/25 09:47:23;;;;;;;4.03;3.93;;;;;;;-145.94;60.15;75778.84;5113849;28;20535;-71
2023/07/25 09:49:51;;;;;;;3.07;3.00;;;;;;;-145.94;59.80;75768.66;5113299;28;20656;-71
2023/07/25 09:52:17;;;;;;;5.47;2.60;;;;;;;-145.94;58.20;75770.69;5113216;28;20250;-71
2023/07/25 09:54:44;;;;;;;3.23;3.03;;;;;;;-145.94;58.38;75791.09;5113279;28;20217;-71
2023/07/25 09:57:10;;;;;;;3.80;2.90;;;;;;;-145.94;58.97;75784.97;5113229;28;20189;-71
2023/07/25 09:59:37;;;;;;;3.20;3.10;;;;;;;-145.94;58.54;75795.16;5113204;28;20237;-71
2023/07/25 10:02:04;;;;;;;4.00;2.63;;;;;;;-145.94;58.50;75811.47;5115640;28;20200;-71
2023/07/25 10:04:34;;;;;;;3.60;3.43;;;;;;;-145.94;59.07;75817.59;5116940;28;20201;-71
2023/07/25 10:07:02;;;;;;;2.97;2.93;;;;;;;-145.94;59.86;75819.63;5117212;28;20174;-71
2023/07/25 10:09:30;;;;;;;5.90;4.20;;;;;;;-145.94;59.32;75825.75;5116940;28;20194;-71
2023/07/25 10:11:56;;;;;;;7.17;3.67;;;;;;;-145.94;59.48;75833.88;5116793;28;20185;-71
2023/07/25 10:14:23;;;;;;;10.40;3.60;;;;;;;-145.94;60.34;75844.09;5117321;28;20667;-72
2023/07/25 10:16:50;;;;;;;3.37;3.07;;;;;;;-145.94;60.29;75831.84;5117285;28;20188;-72
2023/07/25 10:19:16;;;;;;;5.27;3.47;;;;;;;-145.94;60.22;75837.97;5098665;28;20234;-72
2023/07/25 10:21:50;;;;;;;3.83;3.47;;;;;;;-145.94;60.57;75842.03;5116639;28;20185;-72
2023/07/25 10:24:17;;;;;;;5.43;3.10;;;;;;;-145.94;59.85;75844.09;5116596;28;20197;-71
2023/07/25 10:26:57;;;;;;;3.70;3.13;;;;;;;-145.94;60.58;75844.09;5116614;28;20617;-71
2023/07/25 10:29:45;;;;;;;6.37;3.67;;;;;;;-145.94;61.03;75846.13;5116480;28;20197;-71
2023/07/25 10:32:13;;;;;;;3.00;2.80;;;;;;;-145.94;60.77;75837.97;5116958;28;20201;-71
2023/07/25 10:35:01;;;;;;;4.67;3.33;;;;;;;-145.94;61.05;75835.94;5116966;28;20184;-71
2023/07/25 10:37:30;;;;;;;3.17;2.97;;;;;;;-145.94;61.22;75837.97;5116753;28;20184;-71
2023/07/25 10:40:03;;;;;;;5.17;3.03;;;;;;;-145.94;61.52;75837.97;5116315;28;20272;-72
2023/07/25 10:42:47;;;;;;;2.80;2.67;;;;;;;-145.94;62.19;75831.84;5116663;28;20262;-72
2023/07/25 10:45:29;;;;;;;3.17;2.90;;;;;;;-145.94;62.55;75823.69;5116058;28;20266;-72
2023/07/25 10:47:58;;;;;;;3.47;3.37;;;;;;;-145.94;61.66;75813.50;5116129;28;20177;-72
2023/07/25 10:50:27;;;;;;;3.17;3.03;;;;;;;-145.94;59.96;75787.00;5116444;28;20547;-72
2023/07/25 10:52:53;;;;;;;3.47;3.37;;;;;;;-145.94;60.70;75774.78;5115959;28;20205;-71
2023/07/25 10:55:20;;;;;;;2.83;2.60;;;;;;;-145.94;58.70;75758.47;5116526;28;20276;-72
2023/07/25 10:58:14;;;;;;;6.30;3.23;;;;;;;-145.94;58.90;75727.88;5116006;28;20541;-71
2023/07/25 11:00:40;;;;;;;3.13;2.90;;;;;;;-145.94;59.57;75715.66;5112242;28;20197;-71
2023/07/25 11:03:26;;;;;;;3.33;3.23;;;;;;;-145.94;58.28;75707.50;5115824;28;20276;-71
2023/07/25 11:06:12;;;;;;;3.07;2.87;;;;;;;-145.94;57.35;75713.63;5116057;28;20242;-71
2023/07/25 11:08:41;;;;;;;3.33;3.23;;;;;;;-145.94;57.52;75742.16;5115910;28;20193;-70
2023/07/25 11:11:09;;;;;;;4.40;3.37;;;;;;;-145.94;57.90;75772.72;5115788;28;20198;-71
2023/07/25 11:13:38;;;;;;;3.40;3.13;;;;;;;-145.94;58.53;75791.09;5114903;28;20201;-71
2023/07/25 11:16:09;;;;;;;3.83;2.67;;;;;;;-145.94;58.54;75813.50;5115648;28;20190;-72
2023/07/25 11:18:47;;;;;;;4.07;3.57;;;;;;;-145.94;58.62;75821.66;5115691;28;20173;-71